sensor_id;sensor_type;location;lat;lon;timestamp;P1;durP1;ratioP1;P2;durP2;ratioP2
34982;SDS011;21187;50.976;13.720;2023-11-22T00:02:48;16.02;;;7.85;;
34982;SDS011;21187;50.976;13.720;2023-11-22T00:07:50;16.23;;;8.40;;
34982;SDS011;21187;50.976;13.720;2023-11-22T00:12:53;21.13;;;8.63;;
34982;SDS011;21187;50.976;13.720;2023-11-22T00:17:54;21.40;;;10.93;;
34982;SDS011;21187;50.976;13.720;2023-11-22T00:22:59;21.20;;;9.68;;
34982;SDS011;21187;50.976;13.720;2023-11-22T00:28:01;31.95;;;10.52;;
34982;SDS011;21187;50.976;13.720;2023-11-22T00:33:03;23.55;;;10.77;;
34982;SDS011;21187;50.976;13.720;2023-11-22T00:38:06;22.58;;;10.02;;
34982;SDS011;21187;50.976;13.720;2023-11-22T00:43:08;24.90;;;11.07;;
34982;SDS011;21187;50.976;13.720;2023-11-22T00:48:10;24.40;;;10.70;;
34982;SDS011;21187;50.976;13.720;2023-11-22T00:53:12;26.42;;;11.15;;
34982;SDS011;21187;50.976;13.720;2023-11-22T00:58:17;25.23;;;11.02;;
34982;SDS011;21187;50.976;13.720;2023-11-22T01:03:19;24.17;;;9.57;;
34982;SDS011;21187;50.976;13.720;2023-11-22T01:08:21;25.65;;;11.02;;
34982;SDS011;21187;50.976;13.720;2023-11-22T01:13:23;23.15;;;10.18;;
34982;SDS011;21187;50.976;13.720;2023-11-22T01:18:25;28.38;;;11.10;;
34982;SDS011;21187;50.976;13.720;2023-11-22T01:23:27;27.95;;;12.15;;
34982;SDS011;21187;50.976;13.720;2023-11-22T01:28:29;25.20;;;12.30;;
34982;SDS011;21187;50.976;13.720;2023-11-22T01:33:35;29.67;;;12.23;;
34982;SDS011;21187;50.976;13.720;2023-11-22T01:38:38;29.35;;;11.48;;
34982;SDS011;21187;50.976;13.720;2023-11-22T01:43:41;28.67;;;13.13;;
34982;SDS011;21187;50.976;13.720;2023-11-22T01:48:43;29.17;;;12.68;;
34982;SDS011;21187;50.976;13.720;2023-11-22T01:53:44;29.63;;;12.52;;
34982;SDS011;21187;50.976;13.720;2023-11-22T01:58:49;31.85;;;12.80;;
34982;SDS011;21187;50.976;13.720;2023-11-22T02:03:51;29.35;;;13.13;;
34982;SDS011;21187;50.976;13.720;2023-11-22T02:08:55;26.30;;;13.40;;
34982;SDS011;21187;50.976;13.720;2023-11-22T02:13:57;30.15;;;12.52;;
34982;SDS011;21187;50.976;13.720;2023-11-22T02:18:59;33.13;;;13.30;;
34982;SDS011;21187;50.976;13.720;2023-11-22T02:24:01;34.72;;;13.70;;
34982;SDS011;21187;50.976;13.720;2023-11-22T02:29:03;28.17;;;13.10;;
34982;SDS011;21187;50.976;13.720;2023-11-22T02:34:08;29.77;;;12.52;;
34982;SDS011;21187;50.976;13.720;2023-11-22T02:39:10;29.55;;;12.93;;
34982;SDS011;21187;50.976;13.720;2023-11-22T02:44:12;26.13;;;12.05;;
34982;SDS011;21187;50.976;13.720;2023-11-22T02:49:18;31.70;;;13.23;;
34982;SDS011;21187;50.976;13.720;2023-11-22T02:54:21;35.33;;;13.13;;
34982;SDS011;21187;50.976;13.720;2023-11-22T02:59:23;30.88;;;13.02;;
34982;SDS011;21187;50.976;13.720;2023-11-22T03:04:25;29.63;;;11.80;;
34982;SDS011;21187;50.976;13.720;2023-11-22T03:09:27;27.90;;;11.63;;
34982;SDS011;21187;50.976;13.720;2023-11-22T03:14:29;36.13;;;13.25;;
34982;SDS011;21187;50.976;13.720;2023-11-22T03:19:31;29.85;;;13.15;;
34982;SDS011;21187;50.976;13.720;2023-11-22T03:24:35;34.83;;;12.93;;
34982;SDS011;21187;50.976;13.720;2023-11-22T03:29:38;34.75;;;12.57;;
34982;SDS011;21187;50.976;13.720;2023-11-22T03:34:40;30.98;;;12.73;;
34982;SDS011;21187;50.976;13.720;2023-11-22T03:39:42;27.45;;;11.93;;
34982;SDS011;21187;50.976;13.720;2023-11-22T03:44:49;32.13;;;12.80;;
34982;SDS011;21187;50.976;13.720;2023-11-22T03:49:52;29.55;;;11.77;;
34982;SDS011;21187;50.976;13.720;2023-11-22T03:54:54;33.60;;;13.43;;
34982;SDS011;21187;50.976;13.720;2023-11-22T03:59:56;30.33;;;12.90;;
34982;SDS011;21187;50.976;13.720;2023-11-22T04:04:58;33.63;;;13.63;;
34982;SDS011;21187;50.976;13.720;2023-11-22T04:09:59;36.70;;;13.85;;
34982;SDS011;21187;50.976;13.720;2023-11-22T04:15:01;32.40;;;13.40;;
34982;SDS011;21187;50.976;13.720;2023-11-22T04:20:05;30.30;;;13.13;;
34982;SDS011;21187;50.976;13.720;2023-11-22T04:25:11;28.73;;;12.43;;
34982;SDS011;21187;50.976;13.720;2023-11-22T04:30:16;26.60;;;11.60;;
34982;SDS011;21187;50.976;13.720;2023-11-22T04:35:19;29.75;;;12.60;;
34982;SDS011;21187;50.976;13.720;2023-11-22T04:40:20;26.52;;;11.65;;
34982;SDS011;21187;50.976;13.720;2023-11-22T04:45:23;31.67;;;12.65;;
34982;SDS011;21187;50.976;13.720;2023-11-22T04:50:24;26.25;;;11.48;;
34982;SDS011;21187;50.976;13.720;2023-11-22T04:55:26;29.83;;;13.23;;
34982;SDS011;21187;50.976;13.720;2023-11-22T05:00:29;26.00;;;11.63;;
34982;SDS011;21187;50.976;13.720;2023-11-22T05:05:31;32.70;;;13.95;;
34982;SDS011;21187;50.976;13.720;2023-11-22T05:10:33;34.30;;;13.80;;
34982;SDS011;21187;50.976;13.720;2023-11-22T05:15:35;29.05;;;12.32;;
34982;SDS011;21187;50.976;13.720;2023-11-22T05:20:37;31.73;;;13.15;;
34982;SDS011;21187;50.976;13.720;2023-11-22T05:25:39;30.50;;;12.95;;
34982;SDS011;21187;50.976;13.720;2023-11-22T05:30:41;37.97;;;12.63;;
34982;SDS011;21187;50.976;13.720;2023-11-22T05:35:44;29.05;;;12.10;;
34982;SDS011;21187;50.976;13.720;2023-11-22T05:40:46;28.33;;;12.32;;
34982;SDS011;21187;50.976;13.720;2023-11-22T05:45:48;27.33;;;12.40;;
34982;SDS011;21187;50.976;13.720;2023-11-22T05:50:51;31.08;;;12.80;;
34982;SDS011;21187;50.976;13.720;2023-11-22T05:55:53;34.05;;;12.95;;
34982;SDS011;21187;50.976;13.720;2023-11-22T06:00:55;31.88;;;12.55;;
34982;SDS011;21187;50.976;13.720;2023-11-22T06:05:57;27.08;;;11.77;;
34982;SDS011;21187;50.976;13.720;2023-11-22T06:10:59;33.28;;;13.73;;
34982;SDS011;21187;50.976;13.720;2023-11-22T06:16:01;36.30;;;14.88;;
34982;SDS011;21187;50.976;13.720;2023-11-22T06:21:04;31.38;;;13.15;;
34982;SDS011;21187;50.976;13.720;2023-11-22T06:26:07;39.25;;;14.45;;
34982;SDS011;21187;50.976;13.720;2023-11-22T06:31:09;37.17;;;14.40;;
34982;SDS011;21187;50.976;13.720;2023-11-22T06:36:11;43.80;;;15.05;;
34982;SDS011;21187;50.976;13.720;2023-11-22T06:41:14;35.67;;;14.25;;
34982;SDS011;21187;50.976;13.720;2023-11-22T06:46:18;33.20;;;13.77;;
34982;SDS011;21187;50.976;13.720;2023-11-22T06:51:20;33.10;;;13.95;;
34982;SDS011;21187;50.976;13.720;2023-11-22T06:56:23;32.63;;;14.93;;
34982;SDS011;21187;50.976;13.720;2023-11-22T07:01:25;35.17;;;13.88;;
34982;SDS011;21187;50.976;13.720;2023-11-22T07:06:27;37.63;;;14.55;;
34982;SDS011;21187;50.976;13.720;2023-11-22T07:11:29;42.25;;;15.80;;
34982;SDS011;21187;50.976;13.720;2023-11-22T07:16:32;38.10;;;15.38;;
34982;SDS011;21187;50.976;13.720;2023-11-22T07:21:35;36.30;;;15.50;;
34982;SDS011;21187;50.976;13.720;2023-11-22T07:26:39;38.67;;;14.32;;
34982;SDS011;21187;50.976;13.720;2023-11-22T07:31:41;40.53;;;15.23;;
34982;SDS011;21187;50.976;13.720;2023-11-22T07:36:44;33.15;;;14.63;;
34982;SDS011;21187;50.976;13.720;2023-11-22T07:41:45;33.65;;;13.88;;
34982;SDS011;21187;50.976;13.720;2023-11-22T07:46:51;36.97;;;13.48;;
34982;SDS011;21187;50.976;13.720;2023-11-22T07:51:53;39.50;;;14.80;;
34982;SDS011;21187;50.976;13.720;2023-11-22T07:56:55;35.70;;;14.68;;
34982;SDS011;21187;50.976;13.720;2023-11-22T08:01:57;39.67;;;15.23;;
34982;SDS011;21187;50.976;13.720;2023-11-22T08:06:59;37.90;;;15.70;;
34982;SDS011;21187;50.976;13.720;2023-11-22T08:12:02;37.78;;;14.50;;
34982;SDS011;21187;50.976;13.720;2023-11-22T08:17:07;42.63;;;15.05;;
34982;SDS011;21187;50.976;13.720;2023-11-22T08:22:09;32.13;;;13.60;;
34982;SDS011;21187;50.976;13.720;2023-11-22T08:27:10;38.58;;;14.68;;
34982;SDS011;21187;50.976;13.720;2023-11-22T08:32:13;34.92;;;11.85;;
34982;SDS011;21187;50.976;13.720;2023-11-22T08:37:15;33.97;;;13.85;;
34982;SDS011;21187;50.976;13.720;2023-11-22T08:42:17;33.80;;;14.00;;
34982;SDS011;21187;50.976;13.720;2023-11-22T08:47:19;32.17;;;13.93;;
34982;SDS011;21187;50.976;13.720;2023-11-22T08:52:21;33.38;;;13.35;;
34982;SDS011;21187;50.976;13.720;2023-11-22T08:57:24;29.55;;;13.00;;
34982;SDS011;21187;50.976;13.720;2023-11-22T09:02:27;27.42;;;12.60;;
34982;SDS011;21187;50.976;13.720;2023-11-22T09:07:30;28.40;;;11.32;;
34982;SDS011;21187;50.976;13.720;2023-11-22T09:12:32;35.50;;;12.00;;
34982;SDS011;21187;50.976;13.720;2023-11-22T09:17:35;28.73;;;11.70;;
34982;SDS011;21187;50.976;13.720;2023-11-22T09:22:48;41.28;;;15.65;;
34982;SDS011;21187;50.976;13.720;2023-11-22T09:27:52;36.03;;;13.80;;
34982;SDS011;21187;50.976;13.720;2023-11-22T09:33:01;40.53;;;15.60;;
34982;SDS011;21187;50.976;13.720;2023-11-22T09:38:05;39.00;;;15.85;;
34982;SDS011;21187;50.976;13.720;2023-11-22T09:43:11;37.13;;;15.32;;
34982;SDS011;21187;50.976;13.720;2023-11-22T09:48:17;39.50;;;15.90;;
34982;SDS011;21187;50.976;13.720;2023-11-22T09:53:25;40.47;;;15.60;;
34982;SDS011;21187;50.976;13.720;2023-11-22T10:03:45;32.60;;;12.38;;
34982;SDS011;21187;50.976;13.720;2023-11-22T10:08:49;31.17;;;12.27;;
34982;SDS011;21187;50.976;13.720;2023-11-22T10:13:51;28.23;;;10.90;;
34982;SDS011;21187;50.976;13.720;2023-11-22T10:18:53;28.80;;;11.20;;
34982;SDS011;21187;50.976;13.720;2023-11-22T10:23:56;24.17;;;10.35;;
34982;SDS011;21187;50.976;13.720;2023-11-22T10:28:59;24.65;;;10.35;;
34982;SDS011;21187;50.976;13.720;2023-11-22T10:34:01;28.73;;;10.73;;
34982;SDS011;21187;50.976;13.720;2023-11-22T10:39:07;34.67;;;13.30;;
34982;SDS011;21187;50.976;13.720;2023-11-22T10:44:12;25.58;;;11.20;;
34982;SDS011;21187;50.976;13.720;2023-11-22T10:49:17;25.20;;;10.73;;
34982;SDS011;21187;50.976;13.720;2023-11-22T10:54:20;29.20;;;10.00;;
34982;SDS011;21187;50.976;13.720;2023-11-22T10:59:26;23.80;;;10.10;;
34982;SDS011;21187;50.976;13.720;2023-11-22T11:04:39;22.80;;;9.35;;
34982;SDS011;21187;50.976;13.720;2023-11-22T11:09:49;26.95;;;10.48;;
34982;SDS011;21187;50.976;13.720;2023-11-22T11:14:52;24.00;;;8.55;;
34982;SDS011;21187;50.976;13.720;2023-11-22T11:19:54;21.05;;;8.00;;
34982;SDS011;21187;50.976;13.720;2023-11-22T11:25:05;19.05;;;7.63;;
34982;SDS011;21187;50.976;13.720;2023-11-22T11:35:52;17.35;;;8.10;;
34982;SDS011;21187;50.976;13.720;2023-11-22T11:41:05;20.77;;;8.02;;
34982;SDS011;21187;50.976;13.720;2023-11-22T11:46:15;16.95;;;8.23;;
34982;SDS011;21187;50.976;13.720;2023-11-22T11:51:18;19.77;;;8.10;;
34982;SDS011;21187;50.976;13.720;2023-11-22T11:56:25;22.42;;;9.45;;
34982;SDS011;21187;50.976;13.720;2023-11-22T12:01:28;20.60;;;8.35;;
34982;SDS011;21187;50.976;13.720;2023-11-22T12:06:35;18.95;;;7.78;;
34982;SDS011;21187;50.976;13.720;2023-11-22T12:11:40;21.42;;;7.85;;
34982;SDS011;21187;50.976;13.720;2023-11-22T12:16:44;14.05;;;7.18;;
34982;SDS011;21187;50.976;13.720;2023-11-22T12:21:49;20.83;;;10.48;;
34982;SDS011;21187;50.976;13.720;2023-11-22T12:26:51;16.10;;;7.40;;
34982;SDS011;21187;50.976;13.720;2023-11-22T12:31:53;20.05;;;7.50;;
34982;SDS011;21187;50.976;13.720;2023-11-22T12:36:56;23.38;;;8.55;;
34982;SDS011;21187;50.976;13.720;2023-11-22T12:41:59;17.65;;;8.10;;
34982;SDS011;21187;50.976;13.720;2023-11-22T12:47:11;23.77;;;8.63;;
34982;SDS011;21187;50.976;13.720;2023-11-22T12:52:13;21.67;;;11.00;;
34982;SDS011;21187;50.976;13.720;2023-11-22T12:57:15;26.63;;;10.68;;
34982;SDS011;21187;50.976;13.720;2023-11-22T13:02:20;23.23;;;10.27;;
34982;SDS011;21187;50.976;13.720;2023-11-22T13:07:23;17.73;;;8.30;;
34982;SDS011;21187;50.976;13.720;2023-11-22T13:12:25;22.75;;;9.90;;
34982;SDS011;21187;50.976;13.720;2023-11-22T13:17:26;23.25;;;8.35;;
34982;SDS011;21187;50.976;13.720;2023-11-22T13:22:29;20.98;;;9.07;;
34982;SDS011;21187;50.976;13.720;2023-11-22T13:27:31;24.35;;;10.23;;
34982;SDS011;21187;50.976;13.720;2023-11-22T13:32:33;21.58;;;8.68;;
34982;SDS011;21187;50.976;13.720;2023-11-22T13:37:36;34.03;;;11.98;;
34982;SDS011;21187;50.976;13.720;2023-11-22T13:42:38;20.63;;;9.57;;
34982;SDS011;21187;50.976;13.720;2023-11-22T13:47:40;33.60;;;13.90;;
34982;SDS011;21187;50.976;13.720;2023-11-22T13:52:50;22.23;;;9.57;;
34982;SDS011;21187;50.976;13.720;2023-11-22T13:58:02;34.43;;;11.27;;
34982;SDS011;21187;50.976;13.720;2023-11-22T14:03:04;22.25;;;9.23;;
34982;SDS011;21187;50.976;13.720;2023-11-22T14:08:12;24.10;;;9.13;;
34982;SDS011;21187;50.976;13.720;2023-11-22T14:13:15;22.88;;;10.15;;
34982;SDS011;21187;50.976;13.720;2023-11-22T14:18:18;23.48;;;9.55;;
34982;SDS011;21187;50.976;13.720;2023-11-22T14:23:20;24.50;;;10.05;;
34982;SDS011;21187;50.976;13.720;2023-11-22T14:28:22;25.80;;;11.05;;
34982;SDS011;21187;50.976;13.720;2023-11-22T14:33:24;24.92;;;10.35;;
34982;SDS011;21187;50.976;13.720;2023-11-22T14:38:26;22.27;;;10.80;;
34982;SDS011;21187;50.976;13.720;2023-11-22T14:43:29;30.48;;;11.65;;
34982;SDS011;21187;50.976;13.720;2023-11-22T14:48:31;31.00;;;11.05;;
34982;SDS011;21187;50.976;13.720;2023-11-22T14:53:33;24.50;;;10.00;;
34982;SDS011;21187;50.976;13.720;2023-11-22T14:58:35;24.90;;;10.32;;
34982;SDS011;21187;50.976;13.720;2023-11-22T15:03:37;34.13;;;15.48;;
34982;SDS011;21187;50.976;13.720;2023-11-22T15:08:39;28.70;;;11.88;;
34982;SDS011;21187;50.976;13.720;2023-11-22T15:13:44;30.33;;;12.65;;
34982;SDS011;21187;50.976;13.720;2023-11-22T15:18:46;31.55;;;13.18;;
34982;SDS011;21187;50.976;13.720;2023-11-22T15:23:48;35.70;;;14.57;;
34982;SDS011;21187;50.976;13.720;2023-11-22T15:28:50;37.72;;;14.20;;
34982;SDS011;21187;50.976;13.720;2023-11-22T15:33:54;153.75;;;43.38;;
34982;SDS011;21187;50.976;13.720;2023-11-22T15:38:56;37.55;;;14.05;;
34982;SDS011;21187;50.976;13.720;2023-11-22T15:43:58;22.98;;;10.40;;
34982;SDS011;21187;50.976;13.720;2023-11-22T15:49:00;26.35;;;12.48;;
34982;SDS011;21187;50.976;13.720;2023-11-22T15:54:02;26.95;;;12.23;;
34982;SDS011;21187;50.976;13.720;2023-11-22T15:59:04;29.98;;;11.60;;
34982;SDS011;21187;50.976;13.720;2023-11-22T16:04:06;28.27;;;11.80;;
34982;SDS011;21187;50.976;13.720;2023-11-22T16:09:08;29.70;;;11.88;;
34982;SDS011;21187;50.976;13.720;2023-11-22T16:14:14;30.45;;;12.80;;
34982;SDS011;21187;50.976;13.720;2023-11-22T16:19:17;26.58;;;11.65;;
34982;SDS011;21187;50.976;13.720;2023-11-22T16:24:18;26.85;;;12.48;;
34982;SDS011;21187;50.976;13.720;2023-11-22T16:29:20;27.85;;;12.00;;
34982;SDS011;21187;50.976;13.720;2023-11-22T16:34:22;34.28;;;13.70;;
34982;SDS011;21187;50.976;13.720;2023-11-22T16:39:24;33.85;;;15.18;;
34982;SDS011;21187;50.976;13.720;2023-11-22T16:44:30;35.33;;;14.48;;
34982;SDS011;21187;50.976;13.720;2023-11-22T16:49:32;33.92;;;13.35;;
34982;SDS011;21187;50.976;13.720;2023-11-22T16:54:36;37.83;;;14.27;;
34982;SDS011;21187;50.976;13.720;2023-11-22T16:59:40;32.65;;;14.23;;
34982;SDS011;21187;50.976;13.720;2023-11-22T17:04:42;33.47;;;13.82;;
34982;SDS011;21187;50.976;13.720;2023-11-22T17:09:45;33.83;;;13.18;;
34982;SDS011;21187;50.976;13.720;2023-11-22T17:14:47;29.27;;;13.15;;
34982;SDS011;21187;50.976;13.720;2023-11-22T17:19:50;46.88;;;17.20;;
34982;SDS011;21187;50.976;13.720;2023-11-22T17:24:52;79.50;;;21.58;;
34982;SDS011;21187;50.976;13.720;2023-11-22T17:29:54;47.47;;;16.20;;
34982;SDS011;21187;50.976;13.720;2023-11-22T17:34:57;35.30;;;15.35;;
34982;SDS011;21187;50.976;13.720;2023-11-22T17:39:59;33.40;;;13.98;;
34982;SDS011;21187;50.976;13.720;2023-11-22T17:45:01;33.65;;;14.48;;
34982;SDS011;21187;50.976;13.720;2023-11-22T17:50:06;33.78;;;13.15;;
34982;SDS011;21187;50.976;13.720;2023-11-22T17:55:10;31.42;;;13.85;;
34982;SDS011;21187;50.976;13.720;2023-11-22T18:00:12;31.48;;;12.07;;
34982;SDS011;21187;50.976;13.720;2023-11-22T18:05:18;32.80;;;12.02;;
34982;SDS011;21187;50.976;13.720;2023-11-22T18:10:27;29.05;;;12.55;;
34982;SDS011;21187;50.976;13.720;2023-11-22T18:15:42;31.23;;;12.88;;
34982;SDS011;21187;50.976;13.720;2023-11-22T18:20:45;32.22;;;11.60;;
34982;SDS011;21187;50.976;13.720;2023-11-22T18:25:49;27.85;;;12.82;;
34982;SDS011;21187;50.976;13.720;2023-11-22T18:30:51;26.73;;;11.75;;
34982;SDS011;21187;50.976;13.720;2023-11-22T18:35:53;30.95;;;11.45;;
34982;SDS011;21187;50.976;13.720;2023-11-22T18:40:59;29.95;;;12.27;;
34982;SDS011;21187;50.976;13.720;2023-11-22T18:46:04;38.92;;;15.00;;
34982;SDS011;21187;50.976;13.720;2023-11-22T18:51:08;49.72;;;17.58;;
34982;SDS011;21187;50.976;13.720;2023-11-22T18:56:11;39.38;;;15.07;;
34982;SDS011;21187;50.976;13.720;2023-11-22T19:01:13;43.08;;;14.70;;
34982;SDS011;21187;50.976;13.720;2023-11-22T19:06:17;39.80;;;15.63;;
34982;SDS011;21187;50.976;13.720;2023-11-22T19:11:20;36.53;;;14.07;;
34982;SDS011;21187;50.976;13.720;2023-11-22T19:16:22;33.67;;;13.32;;
34982;SDS011;21187;50.976;13.720;2023-11-22T19:21:24;31.27;;;14.10;;
34982;SDS011;21187;50.976;13.720;2023-11-22T19:26:28;37.63;;;14.02;;
34982;SDS011;21187;50.976;13.720;2023-11-22T19:31:35;31.73;;;13.80;;
34982;SDS011;21187;50.976;13.720;2023-11-22T19:36:38;31.45;;;12.98;;
34982;SDS011;21187;50.976;13.720;2023-11-22T19:41:40;38.75;;;15.27;;
34982;SDS011;21187;50.976;13.720;2023-11-22T19:46:42;44.83;;;14.73;;
34982;SDS011;21187;50.976;13.720;2023-11-22T19:51:44;37.25;;;14.65;;
34982;SDS011;21187;50.976;13.720;2023-11-22T19:56:46;41.75;;;14.73;;
34982;SDS011;21187;50.976;13.720;2023-11-22T20:01:49;45.50;;;15.15;;
34982;SDS011;21187;50.976;13.720;2023-11-22T20:06:52;37.33;;;15.68;;
34982;SDS011;21187;50.976;13.720;2023-11-22T20:11:54;36.83;;;15.98;;
34982;SDS011;21187;50.976;13.720;2023-11-22T20:16:56;40.40;;;14.18;;
34982;SDS011;21187;50.976;13.720;2023-11-22T20:21:59;34.83;;;14.02;;
34982;SDS011;21187;50.976;13.720;2023-11-22T20:27:04;39.33;;;15.65;;
34982;SDS011;21187;50.976;13.720;2023-11-22T20:32:07;31.48;;;12.30;;
34982;SDS011;21187;50.976;13.720;2023-11-22T20:37:09;32.67;;;13.57;;
34982;SDS011;21187;50.976;13.720;2023-11-22T20:42:12;39.08;;;15.23;;
34982;SDS011;21187;50.976;13.720;2023-11-22T20:47:15;27.95;;;12.07;;
34982;SDS011;21187;50.976;13.720;2023-11-22T20:52:17;33.13;;;12.43;;
34982;SDS011;21187;50.976;13.720;2023-11-22T20:57:19;25.05;;;12.10;;
34982;SDS011;21187;50.976;13.720;2023-11-22T21:02:21;28.73;;;12.25;;
34982;SDS011;21187;50.976;13.720;2023-11-22T21:07:24;35.80;;;14.07;;
34982;SDS011;21187;50.976;13.720;2023-11-22T21:12:27;29.88;;;12.15;;
34982;SDS011;21187;50.976;13.720;2023-11-22T21:17:29;23.73;;;10.68;;
34982;SDS011;21187;50.976;13.720;2023-11-22T21:22:43;24.10;;;11.55;;
34982;SDS011;21187;50.976;13.720;2023-11-22T21:27:45;24.73;;;10.32;;
34982;SDS011;21187;50.976;13.720;2023-11-22T21:32:47;21.73;;;8.25;;
34982;SDS011;21187;50.976;13.720;2023-11-22T21:37:49;21.08;;;9.65;;
34982;SDS011;21187;50.976;13.720;2023-11-22T21:42:51;23.70;;;9.95;;
34982;SDS011;21187;50.976;13.720;2023-11-22T21:47:53;25.02;;;10.20;;
34982;SDS011;21187;50.976;13.720;2023-11-22T21:52:56;25.98;;;9.38;;
34982;SDS011;21187;50.976;13.720;2023-11-22T21:57:58;18.98;;;8.40;;
34982;SDS011;21187;50.976;13.720;2023-11-22T22:03:03;18.10;;;8.60;;
34982;SDS011;21187;50.976;13.720;2023-11-22T22:08:05;19.45;;;8.25;;
34982;SDS011;21187;50.976;13.720;2023-11-22T22:13:07;16.17;;;8.48;;
34982;SDS011;21187;50.976;13.720;2023-11-22T22:18:10;19.70;;;7.78;;
34982;SDS011;21187;50.976;13.720;2023-11-22T22:23:12;16.48;;;7.15;;
34982;SDS011;21187;50.976;13.720;2023-11-22T22:28:14;12.77;;;6.32;;
34982;SDS011;21187;50.976;13.720;2023-11-22T22:33:16;18.50;;;7.28;;
34982;SDS011;21187;50.976;13.720;2023-11-22T22:38:18;18.25;;;8.07;;
34982;SDS011;21187;50.976;13.720;2023-11-22T22:43:20;14.20;;;7.03;;
34982;SDS011;21187;50.976;13.720;2023-11-22T22:48:22;17.27;;;7.25;;
34982;SDS011;21187;50.976;13.720;2023-11-22T22:53:25;14.63;;;6.70;;
34982;SDS011;21187;50.976;13.720;2023-11-22T22:58:26;11.38;;;5.95;;
34982;SDS011;21187;50.976;13.720;2023-11-22T23:03:28;11.20;;;5.38;;
34982;SDS011;21187;50.976;13.720;2023-11-22T23:08:37;12.07;;;5.85;;
34982;SDS011;21187;50.976;13.720;2023-11-22T23:13:39;14.48;;;6.50;;
34982;SDS011;21187;50.976;13.720;2023-11-22T23:18:41;11.65;;;5.35;;
34982;SDS011;21187;50.976;13.720;2023-11-22T23:23:43;12.15;;;6.03;;
34982;SDS011;21187;50.976;13.720;2023-11-22T23:28:46;12.20;;;5.72;;
34982;SDS011;21187;50.976;13.720;2023-11-22T23:33:48;12.55;;;6.65;;
34982;SDS011;21187;50.976;13.720;2023-11-22T23:38:52;15.38;;;5.63;;
34982;SDS011;21187;50.976;13.720;2023-11-22T23:43:54;13.15;;;5.55;;
34982;SDS011;21187;50.976;13.720;2023-11-22T23:48:56;14.85;;;7.05;;
34982;SDS011;21187;50.976;13.720;2023-11-22T23:53:58;12.82;;;6.25;;
34982;SDS011;21187;50.976;13.720;2023-11-22T23:59:00;13.23;;;6.13;;
